Time;durP1;ratioP1;P1;durP2;ratioP2;P2;SDS_P1;SDS_P2;PMS_P1;PMS_P2;Temp;Humidity;BMP_temperature;BMP_pressure;BME280_temperature;BME280_humidity;BME280_pressure;Samples;Min_cycle;Max_cycle;Signal;HPM_P1;HPM_P2
2023/09/29 00:00:53;;;;;;;9.32;3.63;;;;;;;16.23;100.00;101358.81;4915216;29;20031;-67
2023/09/29 00:03:19;;;;;;;5.95;3.28;;;;;;;16.22;100.00;101357.19;4915348;29;20036;-67
2023/09/29 00:05:44;;;;;;;9.23;3.53;;;;;;;16.20;100.00;101351.31;4935613;29;20083;-67
2023/09/29 00:08:15;;;;;;;5.40;3.45;;;;;;;16.19;100.00;101360.16;4934740;29;20487;-67
2023/09/29 00:10:41;;;;;;;7.55;3.55;;;;;;;16.17;100.00;101345.63;4933651;29;20043;-66
2023/09/29 00:13:06;;;;;;;10.77;3.60;;;;;;;16.17;100.00;101353.50;4918505;29;20503;-67
2023/09/29 00:15:33;;;;;;;8.60;3.92;;;;;;;16.15;100.00;101346.63;4923992;29;20032;-66
2023/09/29 00:18:02;;;;;;;9.60;3.47;;;;;;;16.15;100.00;101351.03;4934847;29;20043;-67
2023/09/29 00:20:27;;;;;;;9.93;3.47;;;;;;;16.14;100.00;101350.25;4934097;29;20514;-67
2023/09/29 00:22:59;;;;;;;8.43;3.30;;;;;;;16.15;100.00;101351.03;4936523;29;20028;-66
2023/09/29 00:25:25;;;;;;;5.93;3.10;;;;;;;16.15;100.00;101341.38;4931971;28;20036;-67
2023/09/29 00:27:51;;;;;;;8.25;3.83;;;;;;;16.15;100.00;101345.81;4930085;29;20051;-67
2023/09/29 00:30:17;;;;;;;5.38;3.00;;;;;;;16.17;100.00;101338.59;4913781;29;20059;-67
2023/09/29 00:32:48;;;;;;;5.10;3.50;;;;;;;16.14;100.00;101342.41;4923377;29;20536;-66
2023/09/29 00:35:19;;;;;;;9.40;3.47;;;;;;;16.14;100.00;101350.25;4920125;29;20113;-67
2023/09/29 00:37:45;;;;;;;5.10;3.08;;;;;;;16.13;100.00;101338.13;4930840;29;20140;-67
2023/09/29 00:40:12;;;;;;;10.90;2.92;;;;;;;16.13;100.00;101337.34;4931183;29;20474;-67
2023/09/29 00:42:39;;;;;;;10.25;3.05;;;;;;;16.13;100.00;101335.53;4900432;29;20035;-67
2023/09/29 00:45:06;;;;;;;5.10;2.92;;;;;;;16.14;100.00;101337.16;4935556;29;20039;-67
2023/09/29 00:47:32;;;;;;;4.65;2.70;;;;;;;16.15;100.00;101333.53;4929178;29;20043;-67
2023/09/29 00:49:58;;;;;;;7.85;3.38;;;;;;;16.17;100.00;101335.97;4929348;29;20139;-67
2023/09/29 00:52:27;;;;;;;5.65;3.35;;;;;;;16.15;100.00;101336.16;4905333;29;20133;-67
2023/09/29 00:54:53;;;;;;;8.18;4.00;;;;;;;16.17;100.00;101337.78;4929697;29;20513;-67
2023/09/29 00:57:20;;;;;;;5.95;3.00;;;;;;;16.18;100.00;101332.38;4903885;29;20080;-66
2023/09/29 00:59:46;;;;;;;4.32;3.13;;;;;;;16.20;100.00;101326.94;4930749;29;20086;-67
2023/09/29 01:02:17;;;;;;;7.53;3.15;;;;;;;16.20;100.00;101324.34;4937133;29;20087;-67
2023/09/29 01:04:48;;;;;;;5.18;2.95;;;;;;;16.20;100.00;101321.72;4937946;29;20051;-67
2023/09/29 01:07:15;;;;;;;3.63;2.55;;;;;;;16.19;100.00;101314.88;4918688;29;20058;-67
2023/09/29 01:09:41;;;;;;;7.78;2.60;;;;;;;16.20;100.00;101311.25;4918776;29;20035;-66
2023/09/29 01:12:09;;;;;;;7.45;3.20;;;;;;;16.19;100.00;101307.84;4957215;23;20061;-69
2023/09/29 01:14:35;;;;;;;5.38;2.60;;;;;;;16.20;100.00;101311.25;4949556;28;20117;-69
2023/09/29 01:17:02;;;;;;;5.50;3.05;;;;;;;16.20;100.00;101313.88;4965616;28;20031;-69
2023/09/29 01:19:31;;;;;;;4.35;2.42;;;;;;;16.21;100.00;101312.88;4953503;28;20417;-68
2023/09/29 01:21:57;;;;;;;8.18;3.03;;;;;;;16.20;100.00;101309.47;4965469;28;20118;-69
2023/09/29 01:24:22;;;;;;;3.35;2.60;;;;;;;16.21;100.00;101307.66;4972249;28;20038;-68
2023/09/29 01:26:49;;;;;;;6.43;2.60;;;;;;;16.21;100.00;101308.47;4974814;28;20026;-69
2023/09/29 01:29:15;;;;;;;8.65;2.70;;;;;;;16.28;100.00;101306.75;4980403;28;20134;-68
2023/09/29 01:31:41;;;;;;;3.95;2.55;;;;;;;16.26;100.00;101303.50;4989828;28;20508;-68
2023/09/29 01:34:07;;;;;;;6.63;2.55;;;;;;;16.30;100.00;101306.56;4974087;28;20038;-69
2023/09/29 01:36:32;;;;;;;6.68;2.60;;;;;;;16.27;100.00;101306.94;4956368;28;20030;-68
2023/09/29 01:38:59;;;;;;;7.00;2.80;;;;;;;16.24;100.00;101294.22;4987146;28;20663;-68
2023/09/29 01:41:25;;;;;;;3.25;2.33;;;;;;;16.25;100.00;101291.41;4968088;28;20042;-68
2023/09/29 01:43:50;;;;;;;4.57;2.70;;;;;;;16.32;100.00;101288.88;4972453;28;20027;-69
2023/09/29 01:46:16;;;;;;;4.00;2.22;;;;;;;16.25;100.00;101273.09;4971364;28;20110;-68
2023/09/29 01:48:42;;;;;;;7.82;2.92;;;;;;;16.31;100.00;101269.75;4970981;28;20142;-68
2023/09/29 01:51:07;;;;;;;10.35;3.67;;;;;;;16.27;100.00;101271.09;4971280;28;20441;-67
2023/09/29 01:53:33;;;;;;;5.28;2.70;;;;;;;16.24;100.00;101289.00;4984598;28;20476;-66
2023/09/29 01:56:01;;;;;;;8.20;3.00;;;;;;;16.22;100.00;101289.16;4972515;28;20089;-66
2023/09/29 01:58:27;;;;;;;4.60;2.50;;;;;;;16.21;100.00;101284.91;4966963;28;20039;-67
2023/09/29 02:00:54;;;;;;;6.57;2.70;;;;;;;16.21;100.00;101277.06;4987089;28;20493;-66
2023/09/29 02:03:20;;;;;;;7.82;2.70;;;;;;;16.19;100.00;101273.81;4974148;28;20042;-66
2023/09/29 02:05:45;;;;;;;4.90;2.65;;;;;;;16.18;100.00;101279.22;4967649;28;20049;-68
2023/09/29 02:08:12;;;;;;;5.93;2.40;;;;;;;16.18;100.00;101277.44;4970477;28;20770;-68
2023/09/29 02:10:37;;;;;;;6.75;2.88;;;;;;;16.24;100.00;101274.09;4969088;28;20039;-69
2023/09/29 02:13:07;;;;;;;5.45;2.50;;;;;;;16.22;100.00;101270.03;4971930;28;20031;-68
2023/09/29 02:15:34;;;;;;;5.55;2.67;;;;;;;16.20;100.00;101274.63;4972903;28;20047;-68
2023/09/29 02:18:01;;;;;;;6.28;2.80;;;;;;;16.19;100.00;101283.47;4955241;28;20036;-69
2023/09/29 02:20:30;;;;;;;8.98;3.10;;;;;;;16.18;100.00;101274.00;4973011;28;20143;-68
2023/09/29 02:22:57;;;;;;;4.10;2.40;;;;;;;16.18;100.00;101271.38;4965923;28;20413;-68
2023/09/29 02:25:25;;;;;;;4.55;2.53;;;;;;;16.18;100.00;101269.59;4972273;28;20054;-68
2023/09/29 02:27:59;;;;;;;5.05;2.85;;;;;;;16.17;100.00;101273.19;4967577;28;20042;-68
2023/09/29 02:30:26;;;;;;;3.65;2.33;;;;;;;16.16;100.00;101268.94;4965846;28;20086;-68
2023/09/29 02:32:52;;;;;;;4.72;2.30;;;;;;;16.16;100.00;101261.09;4986043;28;20129;-68
2023/09/29 02:35:18;;;;;;;5.68;2.25;;;;;;;16.15;100.00;101252.44;4969205;28;20042;-68
2023/09/29 02:37:44;;;;;;;3.28;2.40;;;;;;;16.14;100.00;101239.53;4965403;28;20050;-69
2023/09/29 02:40:14;;;;;;;7.45;2.50;;;;;;;16.16;100.00;101237.53;4972108;28;20054;-69
2023/09/29 02:42:41;;;;;;;4.88;2.60;;;;;;;16.16;100.00;101234.94;4971307;28;20123;-68
2023/09/29 02:45:08;;;;;;;5.80;2.40;;;;;;;16.17;100.00;101235.75;4951087;28;20524;-68
2023/09/29 02:47:35;;;;;;;6.07;2.38;;;;;;;16.15;100.00;101236.75;4984109;28;20122;-68
2023/09/29 02:50:00;;;;;;;4.47;2.35;;;;;;;16.15;100.00;101239.34;4970065;28;20054;-68
2023/09/29 02:52:29;;;;;;;4.85;2.50;;;;;;;16.17;100.00;101241.81;4967536;28;20039;-68
2023/09/29 02:54:55;;;;;;;7.35;2.60;;;;;;;16.17;100.00;101236.56;4954241;28;20129;-67
2023/09/29 02:57:22;;;;;;;5.55;2.50;;;;;;;16.16;100.00;101240.16;4985196;28;20045;-68
2023/09/29 02:59:48;;;;;;;6.20;2.80;;;;;;;16.16;100.00;101240.16;4976403;28;20042;-67
2023/09/29 03:02:13;;;;;;;6.05;2.60;;;;;;;16.16;100.00;101237.53;4968512;28;21902;-67
2023/09/29 03:04:43;;;;;;;11.80;3.95;;;;;;;16.15;100.00;101235.94;4972143;28;20126;-68
2023/09/29 03:07:13;;;;;;;4.95;2.50;;;;;;;16.16;100.00;101229.69;4970652;28;20039;-68
2023/09/29 03:09:39;;;;;;;5.72;2.88;;;;;;;16.19;100.00;101231.16;4969076;28;20042;-67
2023/09/29 03:12:04;;;;;;;6.50;2.40;;;;;;;16.17;100.00;101231.34;4984235;28;20097;-68
2023/09/29 03:14:30;;;;;;;8.68;3.17;;;;;;;16.23;100.00;101227.97;4965429;28;20125;-68
2023/09/29 03:17:00;;;;;;;5.38;2.88;;;;;;;16.25;100.00;101223.38;4982613;28;20449;-67
2023/09/29 03:19:26;;;;;;;9.35;2.90;;;;;;;16.34;100.00;101221.47;4968772;28;20060;-68
2023/09/29 03:21:52;;;;;;;7.35;2.83;;;;;;;16.42;100.00;101220.56;4968318;28;20093;-68
2023/09/29 03:24:18;;;;;;;7.65;2.92;;;;;;;16.34;100.00;101217.03;4965123;28;20102;-69
2023/09/29 03:26:44;;;;;;;8.45;2.53;;;;;;;16.34;100.00;101222.28;4967921;28;20089;-68
2023/09/29 03:29:11;;;;;;;6.55;2.67;;;;;;;16.51;100.00;101214.22;4958440;28;20069;-68
2023/09/29 03:31:36;;;;;;;7.80;2.78;;;;;;;16.57;100.00;101210.84;4969027;28;20057;-68
2023/09/29 03:34:02;;;;;;;4.53;2.33;;;;;;;16.56;100.00;101211.88;4962616;28;20039;-68
2023/09/29 03:36:30;;;;;;;9.48;3.17;;;;;;;16.48;100.00;101210.16;4977655;28;20089;-68
2023/09/29 03:38:56;;;;;;;6.68;3.05;;;;;;;16.42;100.00;101210.09;4968894;28;20067;-68
2023/09/29 03:41:23;;;;;;;10.88;2.88;;;;;;;16.40;100.00;101210.25;4967679;28;20078;-68
2023/09/29 03:43:50;;;;;;;7.30;2.67;;;;;;;16.38;100.00;101220.09;4968408;28;20113;-68
2023/09/29 03:46:19;;;;;;;4.55;2.72;;;;;;;16.33;100.00;101217.22;4965328;28;20113;-68
2023/09/29 03:48:47;;;;;;;5.95;2.70;;;;;;;16.33;100.00;101225.06;4964558;28;20077;-68
2023/09/29 03:51:33;;;;;;;8.60;2.83;;;;;;;16.28;100.00;101215.16;4980145;28;20031;-68
2023/09/29 03:53:59;;;;;;;3.75;2.47;;;;;;;16.26;100.00;101208.50;4979901;28;20039;-68
2023/09/29 03:56:25;;;;;;;9.73;3.28;;;;;;;16.33;100.00;101201.53;4951438;28;20058;-68
2023/09/29 03:58:51;;;;;;;6.25;3.15;;;;;;;16.51;100.00;101188.03;4963904;28;20039;-68
2023/09/29 04:01:17;;;;;;;6.70;3.05;;;;;;;16.40;100.00;101188.53;4964758;28;20034;-68
2023/09/29 04:03:43;;;;;;;8.88;2.78;;;;;;;16.30;100.00;101194.06;4970604;28;20093;-66
2023/09/29 04:06:09;;;;;;;8.27;3.08;;;;;;;16.30;100.00;101194.06;4966753;28;20413;-66
2023/09/29 04:08:35;;;;;;;4.90;2.50;;;;;;;16.25;100.00;101199.81;4967491;28;20070;-66
2023/09/29 04:11:01;;;;;;;7.82;3.45;;;;;;;16.24;100.00;101182.53;4966998;28;20073;-66
2023/09/29 04:13:26;;;;;;;7.60;3.30;;;;;;;16.29;100.00;101180.19;4966042;28;20049;-66
2023/09/29 04:15:52;;;;;;;4.13;2.53;;;;;;;16.29;100.00;101168.88;4971114;28;20653;-66
2023/09/29 04:18:17;;;;;;;6.55;3.75;;;;;;;16.25;100.00;101165.00;4967972;28;20031;-66
2023/09/29 04:20:43;;;;;;;4.57;3.15;;;;;;;16.22;100.00;101163.59;4982369;28;20401;-66
2023/09/29 04:23:08;;;;;;;7.43;3.30;;;;;;;16.25;100.00;101157.97;4963828;28;20042;-66
2023/09/29 04:25:34;;;;;;;6.28;3.28;;;;;;;16.23;100.00;101165.19;4965540;28;20547;-66
2023/09/29 04:27:59;;;;;;;5.38;3.33;;;;;;;16.31;100.00;101172.13;4980885;28;20042;-66
2023/09/29 04:30:25;;;;;;;8.82;3.40;;;;;;;16.38;100.00;101157.31;4970141;28;20046;-66
2023/09/29 04:32:52;;;;;;;10.20;4.47;;;;;;;16.43;100.00;101169.84;4967914;28;20038;-66
2023/09/29 04:35:18;;;;;;;8.85;4.60;;;;;;;16.54;100.00;101166.75;4965956;28;20070;-66
2023/09/29 04:37:44;;;;;;;6.07;3.70;;;;;;;16.44;100.00;101174.88;4965614;28;20053;-66
2023/09/29 04:40:11;;;;;;;7.63;3.95;;;;;;;16.51;100.00;101169.72;4966780;28;20043;-66
2023/09/29 04:42:37;;;;;;;20.05;5.05;;;;;;;16.60;100.00;101165.19;4961849;28;20536;-66
2023/09/29 04:45:03;;;;;;;11.43;5.07;;;;;;;16.55;100.00;101163.91;4965508;28;20043;-66
2023/09/29 04:47:29;;;;;;;9.20;4.68;;;;;;;16.67;100.00;101158.19;4963422;28;20043;-66
2023/09/29 04:49:54;;;;;;;7.50;4.63;;;;;;;16.68;100.00;101165.84;4967513;28;20039;-66
2023/09/29 04:52:19;;;;;;;19.10;6.85;;;;;;;16.74;100.00;101166.91;4978588;28;20042;-68
2023/09/29 04:54:45;;;;;;;10.05;5.60;;;;;;;16.70;100.00;101157.81;4966694;28;20776;-68
2023/09/29 04:57:10;;;;;;;9.95;5.65;;;;;;;16.64;100.00;101155.97;4971506;28;20039;-68
2023/09/29 04:59:36;;;;;;;10.63;6.07;;;;;;;16.60;100.00;101147.66;4972746;28;20058;-68
2023/09/29 05:02:01;;;;;;;13.80;6.93;;;;;;;16.62;100.00;101142.25;4969621;28;20696;-68
2023/09/29 05:04:27;;;;;;;12.57;6.80;;;;;;;16.64;100.00;101135.81;4970326;28;20034;-68
2023/09/29 05:06:53;;;;;;;15.48;8.23;;;;;;;16.62;100.00;101131.78;4971590;28;20058;-68
2023/09/29 05:09:19;;;;;;;13.10;7.50;;;;;;;16.65;100.00;101137.44;4979210;28;20070;-68
2023/09/29 05:11:45;;;;;;;15.73;7.15;;;;;;;16.73;100.00;101128.66;4973391;28;20043;-68
2023/09/29 05:14:10;;;;;;;12.82;7.43;;;;;;;16.78;100.00;101125.44;4969790;28;20042;-68
2023/09/29 05:16:36;;;;;;;17.10;7.68;;;;;;;16.73;100.00;101134.69;4969402;28;20038;-67
2023/09/29 05:19:01;;;;;;;16.05;8.32;;;;;;;16.72;100.00;101129.63;4969473;28;20038;-68
2023/09/29 05:21:27;;;;;;;16.50;7.75;;;;;;;16.65;100.00;101134.81;4969615;28;20045;-68
2023/09/29 05:23:53;;;;;;;13.77;8.38;;;;;;;16.62;100.00;101124.72;4953879;28;20108;-68
2023/09/29 05:26:18;;;;;;;11.88;7.35;;;;;;;16.60;100.00;101131.97;4970475;28;20152;-68
2023/09/29 05:28:44;;;;;;;15.13;7.45;;;;;;;16.57;100.00;101144.59;4968292;28;20400;-68
2023/09/29 05:31:11;;;;;;;11.27;7.47;;;;;;;16.51;100.00;101144.34;4956316;28;20043;-68
2023/09/29 05:33:36;;;;;;;16.52;8.27;;;;;;;16.60;100.00;101144.25;4971873;28;20042;-68
2023/09/29 05:36:03;;;;;;;15.48;7.53;;;;;;;16.54;100.00;101151.84;4964303;28;20039;-68
2023/09/29 05:38:28;;;;;;;16.42;8.68;;;;;;;16.67;100.00;101143.31;4971598;28;20031;-68
2023/09/29 05:40:54;;;;;;;15.90;7.40;;;;;;;16.65;100.00;101141.84;4970496;28;20038;-68
2023/09/29 05:43:20;;;;;;;11.82;6.97;;;;;;;16.69;100.00;101138.69;4968066;28;20058;-68
2023/09/29 05:45:45;;;;;;;11.73;7.05;;;;;;;16.71;100.00;101138.50;4969184;28;20047;-68
2023/09/29 05:48:11;;;;;;;10.85;7.15;;;;;;;16.63;100.00;101136.00;4966829;28;20062;-68
2023/09/29 05:50:36;;;;;;;10.35;6.50;;;;;;;16.58;100.00;101136.56;4971784;28;20042;-68
2023/09/29 05:53:03;;;;;;;12.95;7.00;;;;;;;16.68;100.00;101131.81;4973672;28;20428;-67
2023/09/29 05:55:28;;;;;;;11.23;7.22;;;;;;;16.76;100.00;101116.97;4966167;28;20043;-68
2023/09/29 05:57:54;;;;;;;17.42;7.18;;;;;;;16.80;100.00;101124.28;4967354;28;20039;-68
2023/09/29 06:00:19;;;;;;;15.45;8.00;;;;;;;16.86;100.00;101117.50;4972558;28;20046;-68
2023/09/29 06:02:46;;;;;;;11.50;6.43;;;;;;;16.82;100.00;101124.94;4984667;28;20053;-68
2023/09/29 06:05:12;;;;;;;15.82;7.30;;;;;;;16.89;100.00;101123.16;4966383;28;20116;-68
2023/09/29 06:07:38;;;;;;;18.08;7.18;;;;;;;16.92;100.00;101121.97;4972037;28;20043;-68
2023/09/29 06:10:07;;;;;;;12.65;7.13;;;;;;;16.95;100.00;101124.19;4967269;28;20099;-68
2023/09/29 06:12:33;;;;;;;10.35;7.25;;;;;;;16.85;100.00;101131.59;4972874;28;20133;-68
2023/09/29 06:14:59;;;;;;;10.10;6.78;;;;;;;16.73;100.00;101128.66;4982870;28;20098;-68
2023/09/29 06:17:25;;;;;;;13.38;7.85;;;;;;;16.82;100.00;101126.69;4970095;28;20432;-68
2023/09/29 06:19:51;;;;;;;14.20;7.57;;;;;;;16.84;100.00;101129.97;4969872;28;20097;-68
2023/09/29 06:22:19;;;;;;;18.48;7.18;;;;;;;16.89;100.00;101123.16;4967915;28;20717;-68
2023/09/29 06:24:45;;;;;;;13.18;7.40;;;;;;;17.03;100.00;101116.22;4970112;28;20038;-67
2023/09/29 06:27:11;;;;;;;11.88;7.10;;;;;;;17.03;100.00;101120.66;4965765;28;20046;-68
2023/09/29 06:29:39;;;;;;;13.25;6.88;;;;;;;17.04;100.00;101119.66;4965777;28;20043;-68
2023/09/29 06:32:05;;;;;;;11.13;6.50;;;;;;;17.08;100.00;101115.63;4969543;28;20035;-68
2023/09/29 06:34:31;;;;;;;14.63;6.60;;;;;;;17.12;100.00;101124.72;4967654;28;20655;-68
2023/09/29 06:36:56;;;;;;;12.85;7.22;;;;;;;17.12;100.00;101109.84;4984762;28;20022;-66
2023/09/29 06:39:22;;;;;;;14.82;6.82;;;;;;;17.17;100.00;101109.25;4963660;28;20042;-66
2023/09/29 06:41:47;;;;;;;14.55;7.20;;;;;;;17.17;100.00;101111.88;4966306;28;20042;-68
2023/09/29 06:44:13;;;;;;;14.45;5.93;;;;;;;17.19;100.00;101120.34;4971635;28;20039;-66
2023/09/29 06:46:39;;;;;;;10.13;6.05;;;;;;;17.26;100.00;101117.78;4972213;28;20023;-66
2023/09/29 06:49:04;;;;;;;12.88;5.60;;;;;;;17.20;100.00;101114.13;4954012;28;20047;-66
2023/09/29 06:51:30;;;;;;;11.80;5.88;;;;;;;17.29;100.00;101118.22;4982105;28;20125;-66
2023/09/29 06:53:55;;;;;;;13.77;6.15;;;;;;;17.31;100.00;101116.19;4982098;28;20493;-66
2023/09/29 06:56:21;;;;;;;9.30;5.78;;;;;;;17.34;100.00;101115.00;4974219;28;20046;-66
2023/09/29 06:58:46;;;;;;;9.43;4.78;;;;;;;17.27;100.00;101106.28;4958340;28;20061;-66
2023/09/29 07:01:12;;;;;;;10.07;5.78;;;;;;;17.28;100.00;101107.91;4969907;28;20038;-66
2023/09/29 07:03:38;;;;;;;9.00;5.60;;;;;;;17.40;100.00;101108.19;4988101;28;20058;-66
2023/09/29 07:06:04;;;;;;;12.10;5.40;;;;;;;17.50;100.00;101114.69;4971239;28;20045;-66
2023/09/29 07:08:29;;;;;;;11.77;6.13;;;;;;;17.64;100.00;101112.94;4966555;28;20493;-66
2023/09/29 07:10:55;;;;;;;11.48;5.07;;;;;;;17.79;100.00;101117.25;4975333;28;20432;-66
2023/09/29 07:13:21;;;;;;;17.95;6.47;;;;;;;17.81;100.00;101117.84;4983853;28;20047;-66
2023/09/29 07:15:46;;;;;;;17.20;5.20;;;;;;;17.93;100.00;101110.25;4974395;28;20027;-66
2023/09/29 07:18:13;;;;;;;8.82;5.00;;;;;;;17.86;100.00;101111.03;4966256;28;20109;-66
2023/09/29 07:20:39;;;;;;;11.85;4.50;;;;;;;17.88;100.00;101101.16;4968433;28;20070;-66
2023/09/29 07:23:05;;;;;;;11.57;4.55;;;;;;;17.89;100.00;101105.41;4986719;28;20417;-66
2023/09/29 07:25:30;;;;;;;13.05;4.30;;;;;;;17.90;100.00;101103.59;4950817;28;20044;-66
2023/09/29 07:27:56;;;;;;;11.48;4.45;;;;;;;17.97;100.00;101103.59;4982964;28;20062;-66
2023/09/29 07:30:21;;;;;;;8.43;3.78;;;;;;;17.95;100.00;101106.44;4981189;28;20121;-66
2023/09/29 07:32:47;;;;;;;11.13;4.13;;;;;;;18.09;100.00;101105.44;4971454;28;20038;-66
2023/09/29 07:35:13;;;;;;;9.73;3.83;;;;;;;18.29;100.00;101108.13;4984065;28;20135;-66
2023/09/29 07:37:39;;;;;;;8.35;4.05;;;;;;;18.41;100.00;101105.72;4968962;28;20116;-66
2023/09/29 07:40:06;;;;;;;7.78;3.60;;;;;;;18.46;100.00;101105.94;4983809;28;20068;-66
2023/09/29 07:42:32;;;;;;;9.63;3.95;;;;;;;18.41;100.00;101095.22;4969650;28;20436;-65
2023/09/29 07:44:58;;;;;;;12.50;3.60;;;;;;;18.56;100.00;101107.34;4970105;28;20030;-66
2023/09/29 07:47:23;;;;;;;12.18;4.60;;;;;;;18.73;100.00;101105.94;4964694;28;20046;-66
2023/09/29 07:49:49;;;;;;;10.00;3.35;;;;;;;18.77;100.00;101106.34;4955328;28;20117;-67
2023/09/29 07:52:14;;;;;;;9.75;2.85;;;;;;;18.78;100.00;101113.19;4967830;28;20069;-66
2023/09/29 07:54:40;;;;;;;6.32;2.75;;;;;;;18.87;100.00;101119.88;4969301;28;20043;-66
2023/09/29 07:57:05;;;;;;;8.55;2.75;;;;;;;19.00;100.00;101114.63;4965074;28;20046;-66
2023/09/29 07:59:31;;;;;;;6.60;2.63;;;;;;;19.14;100.00;101115.44;4966520;28;20054;-66
2023/09/29 08:01:58;;;;;;;7.13;2.55;;;;;;;19.16;100.00;101123.13;4967367;28;20053;-66
2023/09/29 08:04:24;;;;;;;5.38;2.30;;;;;;;19.13;100.00;101119.06;4964468;28;20027;-67
2023/09/29 08:06:49;;;;;;;3.45;2.20;;;;;;;19.18;100.00;101123.72;4968600;28;20084;-67
2023/09/29 08:09:15;;;;;;;5.22;2.40;;;;;;;19.23;100.00;101123.88;4970569;28;20544;-66
2023/09/29 08:11:42;;;;;;;7.80;2.78;;;;;;;19.42;100.00;101123.06;4969675;28;20066;-66
2023/09/29 08:14:09;;;;;;;5.07;2.13;;;;;;;19.55;100.00;101124.84;4973215;28;20043;-66
2023/09/29 08:16:35;;;;;;;8.30;2.03;;;;;;;19.60;100.00;101114.47;4985592;28;20045;-66
2023/09/29 08:19:03;;;;;;;12.88;2.40;;;;;;;19.65;100.00;101121.75;4970025;28;20476;-66
2023/09/29 08:21:30;;;;;;;3.00;2.00;;;;;;;19.76;100.00;101129.03;4964897;28;20046;-66
2023/09/29 08:23:55;;;;;;;7.88;2.28;;;;;;;19.99;100.00;101131.16;4971650;28;20058;-66
2023/09/29 08:26:21;;;;;;;7.47;2.15;;;;;;;20.33;99.47;101137.03;4969245;28;20869;-65
2023/09/29 08:28:46;;;;;;;6.75;2.33;;;;;;;20.67;97.46;101134.19;4969134;28;20034;-66
2023/09/29 08:31:15;;;;;;;8.25;2.38;;;;;;;20.80;96.46;101134.88;4969124;28;20524;-66
2023/09/29 08:33:43;;;;;;;6.00;1.80;;;;;;;20.94;94.95;101137.41;4971472;28;20066;-66
2023/09/29 08:36:09;;;;;;;6.55;2.20;;;;;;;21.44;91.10;101137.34;4985587;28;20031;-66
2023/09/29 08:38:35;;;;;;;3.53;1.85;;;;;;;22.17;88.68;101140.91;4970281;28;20085;-66
2023/09/29 08:41:05;;;;;;;5.68;1.88;;;;;;;22.55;86.34;101147.69;4969492;28;20141;-66
2023/09/29 08:43:32;;;;;;;7.93;2.17;;;;;;;22.27;86.47;101143.03;4975468;28;20035;-66
2023/09/29 08:45:58;;;;;;;6.90;2.10;;;;;;;22.21;86.31;101144.72;4973101;28;20484;-65
2023/09/29 08:48:27;;;;;;;4.78;1.80;;;;;;;22.38;84.02;101152.84;4963044;28;20173;-66
2023/09/29 08:50:57;;;;;;;5.25;2.42;;;;;;;22.28;84.07;101158.66;4973645;28;20039;-66
2023/09/29 08:53:26;;;;;;;4.05;1.70;;;;;;;22.53;82.90;101157.69;4973043;28;20082;-65
2023/09/29 08:55:56;;;;;;;5.95;2.30;;;;;;;22.15;83.57;101164.06;4967207;28;20047;-66
2023/09/29 08:58:27;;;;;;;5.47;2.17;;;;;;;21.73;87.34;101169.28;4965972;28;20043;-66
2023/09/29 09:00:53;;;;;;;5.90;2.13;;;;;;;21.70;87.09;101175.00;4968543;28;20046;-66
2023/09/29 09:03:19;;;;;;;7.68;2.40;;;;;;;21.63;86.75;101176.94;4987398;28;20030;-66
2023/09/29 09:05:44;;;;;;;7.43;2.13;;;;;;;21.42;86.06;101172.84;4973526;28;20501;-66
2023/09/29 09:08:13;;;;;;;7.45;2.67;;;;;;;21.40;86.41;101175.72;4967689;28;20125;-66
2023/09/29 09:10:38;;;;;;;4.20;2.33;;;;;;;21.36;86.14;101177.97;4972258;28;20035;-66
2023/09/29 09:13:05;;;;;;;5.93;1.80;;;;;;;21.47;84.85;101184.38;4974363;28;20500;-66
2023/09/29 09:15:31;;;;;;;4.63;2.00;;;;;;;21.74;83.63;101181.47;4990360;28;20553;-65
2023/09/29 09:17:57;;;;;;;6.28;1.73;;;;;;;22.08;83.31;101173.94;4956715;28;20043;-67
2023/09/29 09:20:23;;;;;;;8.73;2.20;;;;;;;22.23;81.46;101179.63;4972288;28;20166;-66
2023/09/29 09:22:57;;;;;;;6.72;2.28;;;;;;;22.16;80.57;101178.91;4974338;28;20089;-66
2023/09/29 09:25:35;;;;;;;8.68;3.35;;;;;;;21.89;82.88;101194.28;4955060;28;20560;-66
2023/09/29 09:28:01;;;;;;;4.53;1.90;;;;;;;21.69;82.69;101191.88;4982375;28;20118;-66
2023/09/29 09:30:27;;;;;;;7.22;2.40;;;;;;;21.50;83.70;101191.84;4981690;28;20460;-66
2023/09/29 09:32:53;;;;;;;8.10;2.10;;;;;;;21.37;85.86;101202.50;4974635;28;20097;-66
2023/09/29 09:35:29;;;;;;;8.65;1.90;;;;;;;21.46;85.38;101198.59;4972458;28;20118;-66
2023/09/29 09:37:55;;;;;;;5.47;2.17;;;;;;;22.00;85.12;101192.72;4971937;28;20039;-67
2023/09/29 09:40:25;;;;;;;6.78;1.95;;;;;;;22.30;81.24;101198.84;4973980;28;20039;-66
2023/09/29 09:42:53;;;;;;;9.38;2.13;;;;;;;22.38;79.31;101210.13;4966357;28;20047;-66
2023/09/29 09:45:26;;;;;;;6.03;2.75;;;;;;;22.60;80.64;101205.13;4968531;28;20119;-66
2023/09/29 09:47:59;;;;;;;7.65;2.22;;;;;;;22.84;80.50;101200.72;4959013;28;20054;-66
2023/09/29 09:50:26;;;;;;;;;;;;;;;22.82;79.52;101210.72;4987730;28;20042;-66
2023/09/29 09:52:54;;;;;;;7.63;2.47;;;;;;;22.81;78.45;101212.56;4970349;28;19922;-66
2023/09/29 09:55:28;;;;;;;7.07;2.63;;;;;;;22.70;77.69;101219.41;4983240;28;20163;-67
2023/09/29 09:57:53;;;;;;;12.00;2.42;;;;;;;22.39;79.39;101227.59;4985369;28;20062;-68
2023/09/29 10:00:19;;;;;;;11.32;2.95;;;;;;;22.21;80.96;101226.56;4977296;28;20058;-68
2023/09/29 10:02:56;;;;;;;10.85;3.45;;;;;;;22.32;80.87;101220.56;4989661;28;20042;-69
2023/09/29 10:05:25;;;;;;;7.10;2.30;;;;;;;22.23;79.58;101216.59;4974560;28;20448;-67
2023/09/29 10:08:05;;;;;;;7.95;2.72;;;;;;;22.23;81.57;101219.22;4978467;28;20505;-68
2023/09/29 10:10:32;;;;;;;8.90;3.08;;;;;;;22.45;81.56;101221.41;4974552;28;20069;-67
2023/09/29 10:13:02;;;;;;;7.07;2.97;;;;;;;22.57;80.91;101224.09;4960647;28;20038;-67
2023/09/29 10:15:29;;;;;;;7.68;3.00;;;;;;;22.57;79.89;101222.25;4973217;28;20037;-67
2023/09/29 10:17:59;;;;;;;11.10;2.97;;;;;;;22.54;78.84;101227.97;4973341;28;20065;-67
2023/09/29 10:20:26;;;;;;;10.95;2.90;;;;;;;22.71;77.63;101223.66;4975682;28;20042;-67
2023/09/29 10:23:06;;;;;;;9.07;3.42;;;;;;;22.61;77.89;101231.34;4970069;28;20066;-68
2023/09/29 10:25:35;;;;;;;10.77;3.28;;;;;;;22.78;76.65;101220.13;4974372;28;20046;-68
2023/09/29 10:28:03;;;;;;;10.85;3.80;;;;;;;22.79;77.24;101229.66;4971293;28;20113;-68
2023/09/29 10:30:30;;;;;;;8.95;2.70;;;;;;;22.74;76.13;101240.91;4970452;28;20093;-68
2023/09/29 10:33:07;;;;;;;10.48;3.42;;;;;;;22.72;76.06;101237.69;4969445;28;20050;-68
2023/09/29 10:35:44;;;;;;;10.75;3.92;;;;;;;22.78;75.84;101244.72;4979697;28;20101;-68
2023/09/29 10:38:12;;;;;;;10.70;3.47;;;;;;;22.76;75.28;101248.63;4971411;28;20104;-68
2023/09/29 10:40:38;;;;;;;10.70;3.53;;;;;;;22.87;75.41;101253.13;4972357;28;20061;-68
2023/09/29 10:43:05;;;;;;;14.48;3.80;;;;;;;22.77;75.20;101252.88;4985275;28;20591;-68
2023/09/29 10:45:40;;;;;;;10.48;3.53;;;;;;;22.74;75.90;101252.28;4972641;28;20038;-67
2023/09/29 10:48:07;;;;;;;12.65;3.55;;;;;;;22.79;75.29;101245.50;4983951;28;20031;-68
2023/09/29 10:50:44;;;;;;;10.52;3.60;;;;;;;22.96;75.57;101249.09;4973193;28;20027;-68
2023/09/29 10:53:11;;;;;;;17.05;4.53;;;;;;;22.86;76.34;101243.56;4967430;28;20114;-68
2023/09/29 10:55:45;;;;;;;10.43;3.95;;;;;;;22.90;73.69;101258.75;4967664;28;20523;-67
2023/09/29 10:58:11;;;;;;;9.20;3.70;;;;;;;23.09;74.87;101262.16;4968891;28;20046;-69
2023/09/29 11:00:55;;;;;;;13.43;3.97;;;;;;;23.08;73.08;101260.53;4972423;28;20039;-68
2023/09/29 11:03:26;;;;;;;11.48;3.45;;;;;;;23.39;74.67;101253.31;4968655;28;20117;-68
2023/09/29 11:05:53;;;;;;;10.18;3.75;;;;;;;23.53;73.94;101253.88;4970123;28;20046;-69
2023/09/29 11:08:27;;;;;;;10.65;4.13;;;;;;;23.59;74.54;101268.03;4969092;28;20081;-69
2023/09/29 11:10:57;;;;;;;10.63;3.60;;;;;;;23.57;72.83;101259.53;4972526;28;20042;-68
2023/09/29 11:13:23;;;;;;;13.90;3.95;;;;;;;23.40;74.10;101264.72;4968270;28;20043;-68
2023/09/29 11:15:50;;;;;;;10.68;3.47;;;;;;;23.41;72.28;101263.66;4972213;28;20418;-68